Time;durP1;ratioP1;P1;durP2;ratioP2;P2;SDS_P1;SDS_P2;PMS_P1;PMS_P2;Temp;Humidity;BMP_temperature;BMP_pressure;BME280_temperature;BME280_humidity;BME280_pressure;Samples;Min_cycle;Max_cycle;Signal;HPM_P1;HPM_P2
2021/05/29 00:02:15;;;;;;;11.00;7.35;;;9.70;99.90;;;;;;5011421;28;20026;-74
2021/05/29 00:04:41;;;;;;;7.88;5.60;;;9.70;99.90;;;;;;5010132;28;20029;-73
2021/05/29 00:07:07;;;;;;;9.35;6.57;;;9.70;99.90;;;;;;5011256;28;20487;-73
2021/05/29 00:09:33;;;;;;;9.50;6.65;;;9.60;99.90;;;;;;5011649;28;20442;-74
2021/05/29 00:12:00;;;;;;;9.73;7.25;;;9.60;99.90;;;;;;5011485;28;20026;-74
2021/05/29 00:14:25;;;;;;;8.52;6.20;;;9.60;99.90;;;;;;5010092;28;20034;-74
2021/05/29 00:16:51;;;;;;;9.25;6.72;;;9.60;99.90;;;;;;5009992;28;20072;-74
2021/05/29 00:19:17;;;;;;;9.77;6.95;;;9.60;99.90;;;;;;5009972;28;20112;-74
2021/05/29 00:21:42;;;;;;;9.25;6.93;;;9.60;99.90;;;;;;5009974;28;20022;-74
2021/05/29 00:24:08;;;;;;;8.68;6.40;;;9.60;99.90;;;;;;5009863;28;20039;-73
2021/05/29 00:26:34;;;;;;;8.13;5.93;;;9.60;99.90;;;;;;5010037;28;20028;-74
2021/05/29 00:29:00;;;;;;;9.40;5.70;;;9.60;99.90;;;;;;5011217;28;20506;-74
2021/05/29 00:31:25;;;;;;;8.80;5.97;;;9.70;99.90;;;;;;5009945;28;20041;-74
2021/05/29 00:33:51;;;;;;;7.75;6.05;;;9.60;99.90;;;;;;5011255;28;20026;-74
2021/05/29 00:36:16;;;;;;;7.15;5.45;;;9.60;99.90;;;;;;5011283;28;20446;-74
2021/05/29 00:38:47;;;;;;;7.95;5.93;;;9.60;99.90;;;;;;5010002;28;20034;-74
2021/05/29 00:41:14;;;;;;;8.40;5.78;;;9.60;99.90;;;;;;5009945;28;20029;-74
2021/05/29 00:43:40;;;;;;;7.40;5.15;;;9.60;99.90;;;;;;5011069;28;20044;-73
2021/05/29 00:46:05;;;;;;;8.40;6.35;;;9.60;99.90;;;;;;5009120;28;20057;-74
2021/05/29 00:48:31;;;;;;;7.88;5.35;;;9.60;99.90;;;;;;5010388;28;20053;-74
2021/05/29 00:50:59;;;;;;;7.35;5.50;;;9.60;99.90;;;;;;5010562;28;20034;-73
2021/05/29 00:53:30;;;;;;;8.50;5.57;;;9.60;99.90;;;;;;5009235;28;20041;-73
2021/05/29 00:55:57;;;;;;;6.82;5.28;;;9.60;99.90;;;;;;5009031;28;20121;-74
2021/05/29 00:58:25;;;;;;;8.48;5.22;;;9.50;99.90;;;;;;5010043;28;20030;-74
2021/05/29 01:00:51;;;;;;;9.85;6.07;;;9.50;99.90;;;;;;5009980;28;20092;-73
2021/05/29 01:03:17;;;;;;;6.32;4.72;;;9.50;99.90;;;;;;5010334;28;20029;-73
2021/05/29 01:05:43;;;;;;;7.95;5.40;;;9.40;99.90;;;;;;5010492;28;20434;-74
2021/05/29 01:08:09;;;;;;;6.28;4.65;;;9.40;99.90;;;;;;5010459;28;20030;-74
2021/05/29 01:10:36;;;;;;;7.32;4.93;;;9.40;99.90;;;;;;5010233;28;20152;-74
2021/05/29 01:13:04;;;;;;;7.68;5.05;;;9.30;99.90;;;;;;5008934;28;20033;-73
2021/05/29 01:15:47;;;;;;;6.82;5.03;;;9.20;99.90;;;;;;5008812;28;20088;-73
2021/05/29 01:18:14;;;;;;;;;;;9.20;99.90;;;;;;5010830;28;20371;-73
2021/05/29 01:20:42;;;;;;;6.50;4.70;;;9.10;99.90;;;;;;5010037;28;19928;-73
2021/05/29 01:23:08;;;;;;;7.07;5.10;;;9.10;99.90;;;;;;5009989;28;20022;-73
2021/05/29 01:25:39;;;;;;;8.23;5.30;;;9.00;99.90;;;;;;5008652;28;20109;-73
2021/05/29 01:28:10;;;;;;;9.77;5.70;;;9.00;99.90;;;;;;5008662;28;20036;-73
2021/05/29 01:30:43;;;;;;;6.15;4.72;;;9.00;99.90;;;;;;5009836;28;20450;-73
2021/05/29 01:33:11;;;;;;;11.95;5.20;;;9.00;99.90;;;;;;5007949;28;20022;-73
2021/05/29 01:35:37;;;;;;;6.68;5.07;;;8.90;99.90;;;;;;5008507;28;20427;-73
2021/05/29 01:38:03;;;;;;;7.40;5.38;;;8.90;99.90;;;;;;5008449;28;20034;-73
2021/05/29 01:40:29;;;;;;;6.55;5.32;;;8.90;99.90;;;;;;5008555;28;20022;-73
2021/05/29 01:42:58;;;;;;;7.80;6.10;;;8.90;99.90;;;;;;5009717;28;20029;-73
2021/05/29 01:45:28;;;;;;;6.75;5.35;;;8.90;99.90;;;;;;5008305;28;20022;-73
2021/05/29 01:47:54;;;;;;;9.13;6.00;;;8.90;99.90;;;;;;5009746;28;20025;-73
2021/05/29 01:50:19;;;;;;;10.70;6.13;;;8.90;99.90;;;;;;5009622;28;20053;-74
2021/05/29 01:52:55;;;;;;;7.45;5.72;;;8.90;99.90;;;;;;5010180;28;20600;-73
2021/05/29 01:55:23;;;;;;;7.78;5.43;;;8.90;99.90;;;;;;5008489;28;20033;-73
2021/05/29 01:57:50;;;;;;;8.55;5.72;;;8.90;99.90;;;;;;5008200;28;20022;-73
2021/05/29 02:00:17;;;;;;;7.82;5.78;;;8.80;99.90;;;;;;5008305;28;20144;-74
2021/05/29 02:02:43;;;;;;;8.30;6.10;;;8.80;99.90;;;;;;5009572;28;20033;-74
2021/05/29 02:05:12;;;;;;;9.82;6.20;;;8.80;99.90;;;;;;5008512;28;20026;-74
2021/05/29 02:07:38;;;;;;;7.75;5.65;;;8.80;99.90;;;;;;5008230;28;20026;-73
2021/05/29 02:10:05;;;;;;;7.13;5.25;;;8.80;99.90;;;;;;5009735;28;20032;-73
2021/05/29 02:12:46;;;;;;;7.90;5.70;;;8.90;99.90;;;;;;5009655;28;20046;-73
2021/05/29 02:15:15;;;;;;;6.38;4.72;;;8.80;99.90;;;;;;5009774;28;20025;-73
2021/05/29 02:17:43;;;;;;;7.18;5.30;;;8.80;99.90;;;;;;5009435;28;20390;-73
2021/05/29 02:20:09;;;;;;;7.10;4.88;;;8.80;99.90;;;;;;5008283;28;20029;-74
2021/05/29 02:22:35;;;;;;;6.30;4.75;;;8.80;99.90;;;;;;5008195;28;20113;-73
2021/05/29 02:25:02;;;;;;;7.65;4.90;;;8.80;99.90;;;;;;5009434;28;20097;-74
2021/05/29 02:27:28;;;;;;;7.38;5.00;;;8.80;99.90;;;;;;5008298;28;20445;-74
2021/05/29 02:29:54;;;;;;;6.78;4.90;;;8.80;99.90;;;;;;5008292;28;20029;-74
2021/05/29 02:32:19;;;;;;;9.13;4.93;;;8.90;99.90;;;;;;5009841;28;20081;-74
2021/05/29 02:34:45;;;;;;;6.97;4.90;;;8.90;99.90;;;;;;5009466;28;20029;-74
2021/05/29 02:37:10;;;;;;;7.10;5.05;;;8.80;99.90;;;;;;5009247;28;20038;-74
2021/05/29 02:39:36;;;;;;;6.47;4.97;;;8.90;99.90;;;;;;5009353;28;20026;-74
2021/05/29 02:42:02;;;;;;;7.05;4.90;;;8.90;99.90;;;;;;5008095;28;20018;-73
2021/05/29 02:44:27;;;;;;;6.70;5.28;;;8.90;99.90;;;;;;5011161;28;20058;-74
2021/05/29 02:46:53;;;;;;;7.40;5.22;;;8.90;99.90;;;;;;5012900;28;20052;-74
2021/05/29 02:49:19;;;;;;;6.85;4.85;;;8.90;99.90;;;;;;5013020;28;20034;-74
2021/05/29 02:51:44;;;;;;;6.28;5.03;;;8.90;99.90;;;;;;5011703;28;20476;-74
2021/05/29 02:54:10;;;;;;;6.88;5.13;;;8.90;99.90;;;;;;5012815;28;20038;-74
2021/05/29 02:56:35;;;;;;;7.18;5.40;;;8.90;99.90;;;;;;5012874;28;20465;-74
2021/05/29 02:59:01;;;;;;;6.95;5.10;;;8.90;99.90;;;;;;5012991;28;20033;-74
2021/05/29 03:01:27;;;;;;;6.55;4.35;;;8.90;99.90;;;;;;5012606;28;20368;-74
2021/05/29 03:03:52;;;;;;;7.82;4.75;;;8.80;99.90;;;;;;5012729;28;20034;-73
2021/05/29 03:06:18;;;;;;;6.80;5.07;;;8.80;99.90;;;;;;5011182;28;20026;-73
2021/05/29 03:08:43;;;;;;;5.70;4.35;;;8.80;99.90;;;;;;5012448;28;20372;-74
2021/05/29 03:11:11;;;;;;;7.45;5.10;;;8.80;99.90;;;;;;5012487;28;20460;-74
2021/05/29 03:13:36;;;;;;;10.55;6.05;;;8.80;99.90;;;;;;5011119;28;20117;-74
2021/05/29 03:16:02;;;;;;;7.95;5.78;;;8.80;99.90;;;;;;5012261;28;20052;-74
2021/05/29 03:18:28;;;;;;;10.65;6.05;;;8.80;99.90;;;;;;5010953;28;20487;-74
2021/05/29 03:20:54;;;;;;;8.55;5.45;;;8.80;99.90;;;;;;5012191;28;20026;-74
2021/05/29 03:23:20;;;;;;;7.22;5.65;;;8.80;99.90;;;;;;5012133;28;20036;-73
2021/05/29 03:25:45;;;;;;;7.57;5.97;;;8.80;99.90;;;;;;5012065;28;20100;-74
2021/05/29 03:28:11;;;;;;;9.10;6.45;;;8.80;99.90;;;;;;5011044;28;20076;-74
2021/05/29 03:30:37;;;;;;;11.95;7.03;;;8.80;99.90;;;;;;5010825;28;20030;-74
2021/05/29 03:33:02;;;;;;;8.70;6.22;;;8.80;99.90;;;;;;5010804;28;20109;-73
2021/05/29 03:35:29;;;;;;;7.47;6.03;;;8.90;99.90;;;;;;5012070;28;20097;-74
2021/05/29 03:37:55;;;;;;;7.70;5.53;;;8.90;99.90;;;;;;5010781;28;20029;-74
2021/05/29 03:40:20;;;;;;;8.93;6.40;;;9.00;99.90;;;;;;5012267;28;20018;-74
2021/05/29 03:42:47;;;;;;;9.23;6.32;;;9.00;99.90;;;;;;5012106;28;20026;-74
2021/05/29 03:45:15;;;;;;;11.57;6.53;;;9.10;99.90;;;;;;5011894;28;20018;-74
2021/05/29 03:47:42;;;;;;;8.00;5.80;;;9.10;99.90;;;;;;5011902;28;20030;-74
2021/05/29 03:50:09;;;;;;;8.00;6.20;;;9.30;99.90;;;;;;5011905;28;20029;-74
2021/05/29 03:52:35;;;;;;;9.15;6.55;;;9.30;99.90;;;;;;5012102;28;20033;-73
2021/05/29 03:55:01;;;;;;;11.18;6.70;;;9.40;99.90;;;;;;5009520;28;20029;-74
2021/05/29 03:57:26;;;;;;;8.73;6.70;;;9.50;99.90;;;;;;5011735;28;20030;-74
2021/05/29 03:59:52;;;;;;;8.77;6.25;;;9.60;99.90;;;;;;5011454;28;20108;-73
2021/05/29 04:02:17;;;;;;;10.23;6.43;;;9.70;99.90;;;;;;5011780;28;20061;-74
2021/05/29 04:04:43;;;;;;;7.60;5.82;;;9.70;99.90;;;;;;5011771;28;20021;-74
2021/05/29 04:07:08;;;;;;;7.85;5.97;;;9.80;99.90;;;;;;5011556;28;20390;-74
2021/05/29 04:09:34;;;;;;;8.38;6.07;;;9.90;99.90;;;;;;5011643;28;20491;-74
2021/05/29 04:12:00;;;;;;;8.38;5.63;;;9.90;99.90;;;;;;5010211;28;20022;-74
2021/05/29 04:14:26;;;;;;;7.88;6.25;;;10.00;99.90;;;;;;5012003;28;20030;-74
2021/05/29 04:16:51;;;;;;;8.70;5.85;;;10.00;99.90;;;;;;5011260;28;20026;-74
2021/05/29 04:19:17;;;;;;;7.20;5.72;;;10.00;99.90;;;;;;5011266;28;20032;-73
2021/05/29 04:21:43;;;;;;;9.23;6.20;;;10.10;99.90;;;;;;5011607;28;20022;-74
2021/05/29 04:24:09;;;;;;;7.82;5.68;;;10.10;99.90;;;;;;5010014;28;20399;-73
2021/05/29 04:26:35;;;;;;;6.32;5.10;;;10.20;99.90;;;;;;5011006;28;20053;-73
2021/05/29 04:29:00;;;;;;;6.68;4.95;;;10.20;99.90;;;;;;5010826;28;20050;-73
2021/05/29 04:31:26;;;;;;;5.75;4.15;;;10.40;99.90;;;;;;5010012;28;20057;-73
2021/05/29 04:33:52;;;;;;;5.65;4.53;;;10.50;99.90;;;;;;5011165;28;20030;-73
2021/05/29 04:36:17;;;;;;;6.53;4.70;;;10.60;99.90;;;;;;5039028;22;20046;-73
2021/05/29 04:38:43;;;;;;;6.85;4.72;;;10.70;99.90;;;;;;5032658;28;20472;-74
2021/05/29 04:41:08;;;;;;;6.18;4.57;;;10.90;99.90;;;;;;5031061;28;20025;-73
2021/05/29 04:43:34;;;;;;;8.98;5.20;;;11.00;99.90;;;;;;5031066;28;20026;-75
2021/05/29 04:45:59;;;;;;;5.68;4.15;;;11.10;99.90;;;;;;5031588;28;20391;-74
2021/05/29 04:48:28;;;;;;;5.10;4.10;;;11.20;99.90;;;;;;5029134;28;20048;-74
2021/05/29 04:51:12;;;;;;;6.47;4.45;;;11.40;99.90;;;;;;5030333;28;20100;-74
2021/05/29 04:53:39;;;;;;;6.90;4.97;;;11.50;99.90;;;;;;5029137;28;20026;-74
2021/05/29 04:56:05;;;;;;;5.78;4.57;;;11.60;99.90;;;;;;5030405;28;20049;-74
2021/05/29 04:58:31;;;;;;;6.15;4.82;;;11.50;99.90;;;;;;5030093;28;20021;-73
2021/05/29 05:00:57;;;;;;;5.07;4.20;;;11.40;99.90;;;;;;5028931;28;20455;-74
2021/05/29 05:03:22;;;;;;;5.22;3.97;;;11.50;99.90;;;;;;5028800;28;20030;-74
2021/05/29 05:05:48;;;;;;;7.35;4.95;;;11.50;99.90;;;;;;5029911;28;20066;-74
2021/05/29 05:08:14;;;;;;;7.30;4.38;;;11.50;99.90;;;;;;5028654;28;20036;-73
2021/05/29 05:10:39;;;;;;;6.78;5.30;;;11.40;99.90;;;;;;5029979;28;20040;-73
2021/05/29 05:13:05;;;;;;;6.68;5.38;;;11.40;99.90;;;;;;5029928;28;20021;-74
2021/05/29 05:15:31;;;;;;;7.13;5.13;;;11.40;99.90;;;;;;5029957;28;20025;-73
2021/05/29 05:17:57;;;;;;;7.05;4.70;;;11.50;99.90;;;;;;5029929;28;20034;-73
2021/05/29 05:20:22;;;;;;;8.32;5.68;;;11.60;99.90;;;;;;5030058;28;20216;-74
2021/05/29 05:22:48;;;;;;;7.95;5.30;;;11.70;99.90;;;;;;5030439;28;20036;-74
2021/05/29 05:25:15;;;;;;;6.80;4.97;;;11.80;99.90;;;;;;5029798;28;20037;-74
2021/05/29 05:27:41;;;;;;;6.80;4.57;;;11.90;99.90;;;;;;5028347;28;20079;-75
2021/05/29 05:30:09;;;;;;;6.97;5.00;;;12.10;99.90;;;;;;5029919;28;20033;-74
2021/05/29 05:32:39;;;;;;;8.90;5.07;;;12.30;99.90;;;;;;5028333;28;20037;-74
2021/05/29 05:35:08;;;;;;;6.43;5.32;;;12.40;99.90;;;;;;5029531;28;20052;-74
2021/05/29 05:37:35;;;;;;;7.35;4.88;;;12.60;99.90;;;;;;5028075;28;20053;-74
2021/05/29 05:40:01;;;;;;;8.05;4.65;;;12.90;99.90;;;;;;5028279;28;20025;-74
2021/05/29 05:42:27;;;;;;;5.28;4.13;;;13.00;99.90;;;;;;5029475;28;20028;-75
2021/05/29 05:44:52;;;;;;;6.68;4.25;;;13.10;99.90;;;;;;5029792;28;20022;-74
2021/05/29 05:47:18;;;;;;;8.95;4.65;;;13.30;99.90;;;;;;5029434;28;20486;-74
2021/05/29 05:49:44;;;;;;;6.95;4.78;;;13.50;99.90;;;;;;5028247;28;20068;-74
2021/05/29 05:52:10;;;;;;;5.45;3.95;;;13.70;99.90;;;;;;5029374;28;20486;-74
2021/05/29 05:54:35;;;;;;;6.57;4.80;;;13.80;99.90;;;;;;5029338;28;20029;-74
2021/05/29 05:57:01;;;;;;;5.10;4.22;;;13.90;99.90;;;;;;5028990;28;20037;-74
2021/05/29 05:59:27;;;;;;;7.95;5.05;;;14.00;99.90;;;;;;5028017;28;20033;-74
2021/05/29 06:01:52;;;;;;;5.85;4.30;;;14.10;99.90;;;;;;5029284;28;20144;-74
2021/05/29 06:04:18;;;;;;;6.05;4.35;;;14.10;99.90;;;;;;5029353;28;20076;-75
2021/05/29 06:06:44;;;;;;;4.75;3.97;;;14.10;99.90;;;;;;5029315;28;20031;-75
2021/05/29 06:09:09;;;;;;;6.85;3.80;;;14.10;99.90;;;;;;5028108;28;20018;-74
2021/05/29 06:11:35;;;;;;;5.15;3.83;;;14.10;99.90;;;;;;5029371;28;20402;-74
2021/05/29 06:21:37;;;;;;;6.05;3.97;;;14.50;99.90;;;;;;5033462;28;20021;-74
2021/05/29 06:24:03;;;;;;;4.65;3.67;;;14.60;99.90;;;;;;5033389;28;20101;-74
2021/05/29 06:26:28;;;;;;;7.53;3.72;;;14.60;99.90;;;;;;5034016;28;20057;-74
2021/05/29 06:28:54;;;;;;;4.78;3.53;;;14.50;99.90;;;;;;5032866;28;20060;-74
2021/05/29 06:31:19;;;;;;;6.03;4.07;;;14.50;99.90;;;;;;5033542;28;20497;-73
2021/05/29 06:33:45;;;;;;;4.68;3.38;;;14.50;99.90;;;;;;5031529;28;20030;-74
2021/05/29 06:36:11;;;;;;;7.10;3.70;;;14.50;99.90;;;;;;5031999;28;20044;-75
2021/05/29 06:38:36;;;;;;;4.63;3.22;;;14.70;99.90;;;;;;5033424;28;20022;-74
2021/05/29 06:41:03;;;;;;;4.32;3.00;;;15.00;99.90;;;;;;5031611;28;20028;-74
2021/05/29 06:43:28;;;;;;;4.65;3.03;;;15.20;99.90;;;;;;5031564;28;20057;-74
2021/05/29 06:45:54;;;;;;;4.88;3.05;;;15.30;99.90;;;;;;5033155;28;20111;-74
2021/05/29 06:48:21;;;;;;;4.68;3.47;;;15.50;99.90;;;;;;5032837;28;20030;-74
2021/05/29 06:50:52;;;;;;;7.38;3.10;;;15.60;99.90;;;;;;5032638;28;20025;-74
2021/05/29 06:53:22;;;;;;;3.70;2.92;;;15.60;99.90;;;;;;5032589;28;20029;-73
2021/05/29 06:58:48;;;;;;;3.22;2.72;;;15.90;99.90;;;;;;5032459;28;20071;-73
2021/05/29 07:01:14;;;;;;;4.32;2.75;;;16.00;99.90;;;;;;5032671;28;20434;-74
2021/05/29 07:03:40;;;;;;;4.40;3.10;;;16.40;99.90;;;;;;5032460;28;20495;-73
2021/05/29 07:06:05;;;;;;;4.00;2.80;;;16.60;99.90;;;;;;5032190;28;20028;-73
2021/05/29 07:08:31;;;;;;;3.22;2.40;;;17.10;97.00;;;;;;5031159;28;20029;-75
2021/05/29 07:10:57;;;;;;;4.07;2.90;;;17.70;94.00;;;;;;5030039;28;20041;-75
2021/05/29 07:13:22;;;;;;;3.97;2.55;;;18.40;91.00;;;;;;5029185;28;20030;-75
2021/05/29 07:15:48;;;;;;;6.55;2.92;;;18.70;89.40;;;;;;5030609;28;20378;-75
2021/05/29 07:18:15;;;;;;;2.75;2.40;;;18.80;82.80;;;;;;5029044;28;20040;-74
2021/05/29 07:20:42;;;;;;;3.92;2.67;;;18.70;81.00;;;;;;5031143;28;20014;-75
2021/05/29 07:23:08;;;;;;;4.80;2.78;;;18.60;78.90;;;;;;5031347;28;20429;-73
2021/05/29 07:25:36;;;;;;;4.32;2.25;;;18.80;76.40;;;;;;5031892;28;20025;-74
2021/05/29 07:28:01;;;;;;;4.03;2.60;;;18.90;74.20;;;;;;5030620;28;20100;-74
2021/05/29 07:30:27;;;;;;;3.03;2.40;;;18.80;71.70;;;;;;5030473;28;20570;-74
2021/05/29 07:32:53;;;;;;;5.53;2.83;;;18.90;73.00;;;;;;5031816;28;20159;-74
2021/05/29 07:35:18;;;;;;;3.13;2.60;;;19.40;69.90;;;;;;5030501;28;20032;-74
2021/05/29 07:37:44;;;;;;;2.72;2.20;;;19.90;69.10;;;;;;5030131;28;20044;-74
2021/05/29 07:40:11;;;;;;;3.13;2.00;;;20.20;67.60;;;;;;5030405;28;20025;-74
2021/05/29 07:42:37;;;;;;;3.40;2.72;;;20.60;67.80;;;;;;5031461;28;20103;-74
2021/05/29 07:45:04;;;;;;;3.90;2.30;;;20.90;67.10;;;;;;5031986;28;20057;-74
2021/05/29 07:47:30;;;;;;;3.10;2.50;;;21.20;63.00;;;;;;5031478;28;20025;-74
2021/05/29 07:49:56;;;;;;;2.83;2.17;;;21.40;65.70;;;;;;5032509;28;20028;-74
2021/05/29 07:52:21;;;;;;;2.33;1.90;;;21.50;65.30;;;;;;5030993;28;20033;-74
2021/05/29 07:54:47;;;;;;;2.47;2.10;;;21.90;62.80;;;;;;5032760;28;20030;-74
2021/05/29 07:57:12;;;;;;;5.88;2.42;;;22.30;63.90;;;;;;5032374;28;20037;-74
2021/05/29 07:59:39;;;;;;;3.55;2.05;;;22.40;59.60;;;;;;5030988;28;20075;-74
2021/05/29 08:02:05;;;;;;;3.42;2.17;;;22.60;58.60;;;;;;5033046;28;20113;-75
2021/05/29 08:04:30;;;;;;;2.97;2.35;;;22.90;57.70;;;;;;5029926;28;20026;-74
2021/05/29 08:06:56;;;;;;;4.03;2.50;;;23.10;56.40;;;;;;5029879;28;20079;-74
2021/05/29 08:09:22;;;;;;;2.72;2.40;;;22.50;56.50;;;;;;5031224;28;20033;-75
2021/05/29 08:11:47;;;;;;;2.63;1.85;;;22.00;56.60;;;;;;5031226;28;20064;-75
2021/05/29 08:14:14;;;;;;;2.67;2.25;;;21.80;58.00;;;;;;5029838;28;20025;-75
2021/05/29 08:16:40;;;;;;;4.15;2.95;;;21.60;57.10;;;;;;5029730;28;20030;-75
2021/05/29 08:19:11;;;;;;;3.65;2.83;;;21.10;60.80;;;;;;5031157;28;20030;-75
2021/05/29 08:21:40;;;;;;;3.30;2.78;;;20.80;59.50;;;;;;5030979;28;20021;-75
2021/05/29 08:24:07;;;;;;;4.03;3.17;;;20.60;62.10;;;;;;5030890;28;20479;-75
2021/05/29 08:26:35;;;;;;;4.88;2.60;;;20.20;61.50;;;;;;5030668;28;20467;-75
2021/05/29 08:29:01;;;;;;;4.03;2.75;;;19.90;61.30;;;;;;5030811;28;20060;-75
2021/05/29 08:31:27;;;;;;;3.50;2.60;;;19.70;63.20;;;;;;5030706;28;20026;-75
2021/05/29 08:33:52;;;;;;;3.60;2.85;;;19.60;62.90;;;;;;5029513;28;20032;-75
2021/05/29 08:36:18;;;;;;;4.28;2.67;;;19.40;62.30;;;;;;5030544;28;20088;-74
2021/05/29 08:38:46;;;;;;;3.45;2.55;;;18.90;62.60;;;;;;5030679;28;20029;-74
2021/05/29 08:41:12;;;;;;;4.50;2.35;;;18.60;64.60;;;;;;5030089;28;20410;-75
2021/05/29 08:43:38;;;;;;;5.18;2.80;;;18.40;65.50;;;;;;5030372;28;20072;-74
2021/05/29 08:46:05;;;;;;;2.55;2.33;;;18.30;66.40;;;;;;5030203;28;20025;-75
2021/05/29 08:48:30;;;;;;;2.92;2.10;;;18.30;66.70;;;;;;5030247;28;20030;-75
2021/05/29 08:51:16;;;;;;;2.30;1.80;;;18.70;63.40;;;;;;5030279;28;20459;-75
2021/05/29 08:53:48;;;;;;;4.43;2.20;;;19.00;59.70;;;;;;5030485;28;20028;-75
2021/05/29 08:56:15;;;;;;;2.72;2.20;;;19.60;59.50;;;;;;5030284;28;20022;-75
2021/05/29 08:58:41;;;;;;;3.35;2.67;;;19.90;59.20;;;;;;5028680;28;20022;-75
2021/05/29 09:01:07;;;;;;;3.10;2.42;;;20.00;58.10;;;;;;5028839;28;20033;-75
2021/05/29 09:03:40;;;;;;;3.38;1.88;;;20.20;60.80;;;;;;5030593;28;20033;-75
2021/05/29 09:06:05;;;;;;;;;;;20.40;59.70;;;;;;5030418;28;20040;-74
2021/05/29 09:08:31;;;;;;;4.50;2.17;;;20.60;60.10;;;;;;5028613;28;20358;-75
2021/05/29 09:10:59;;;;;;;2.83;2.20;;;20.90;59.60;;;;;;5029850;28;20026;-75
2021/05/29 09:13:30;;;;;;;2.75;2.03;;;21.20;58.50;;;;;;5029805;28;20034;-75
2021/05/29 09:16:01;;;;;;;5.18;2.70;;;21.50;59.10;;;;;;5030557;28;20032;-75
2021/05/29 09:18:42;;;;;;;3.83;2.08;;;21.70;55.80;;;;;;5030074;28;20491;-75
2021/05/29 09:21:30;;;;;;;;;;;21.70;59.80;;;;;;5030320;28;20050;-75
2021/05/29 09:24:14;;;;;;;3.90;2.85;;;21.90;55.90;;;;;;5029866;28;19905;-75
2021/05/29 09:26:54;;;;;;;3.25;2.17;;;21.70;54.90;;;;;;5030034;28;20041;-75
2021/05/29 09:29:28;;;;;;;2.92;1.77;;;22.20;52.80;;;;;;5029993;28;20426;-75
2021/05/29 09:31:58;;;;;;;2.40;2.10;;;22.20;53.30;;;;;;5032351;28;20482;-75
2021/05/29 09:34:28;;;;;;;3.55;2.22;;;22.30;53.40;;;;;;5032103;28;20507;-75
2021/05/29 09:37:06;;;;;;;2.67;2.22;;;22.60;52.20;;;;;;5029399;28;20061;-76
2021/05/29 09:39:32;;;;;;;3.85;2.38;;;22.60;52.50;;;;;;5030095;28;20068;-75
2021/05/29 09:42:01;;;;;;;2.67;2.17;;;22.50;52.30;;;;;;5029522;28;20092;-75
2021/05/29 09:44:28;;;;;;;4.15;1.80;;;22.80;52.20;;;;;;5029432;28;20025;-75
2021/05/29 09:46:56;;;;;;;3.63;2.30;;;23.60;49.70;;;;;;5028537;28;20047;-76
2021/05/29 09:49:47;;;;;;;5.00;1.77;;;25.50;45.50;;;;;;5029464;28;20024;-74
2021/05/29 09:52:48;;;;;;;3.17;1.70;;;26.70;44.00;;;;;;5029220;28;20024;-74
2021/05/29 09:55:14;;;;;;;3.63;2.03;;;27.70;41.40;;;;;;5028158;28;20021;-73
2021/05/29 09:57:53;;;;;;;2.22;1.58;;;28.40;40.10;;;;;;5029232;28;20032;-74
2021/05/29 10:00:19;;;;;;;2.47;1.83;;;31.10;35.20;;;;;;5029547;28;20500;-74
2021/05/29 10:03:02;;;;;;;2.03;1.38;;;33.40;30.60;;;;;;5028310;28;20379;-74
2021/05/29 10:05:30;;;;;;;2.15;1.60;;;32.50;32.70;;;;;;5029750;28;20099;-73
2021/05/29 10:07:56;;;;;;;2.97;1.80;;;29.90;34.30;;;;;;5027897;28;20380;-75
2021/05/29 10:10:22;;;;;;;5.10;1.65;;;27.70;38.20;;;;;;5027989;28;20407;-76
2021/05/29 10:12:47;;;;;;;2.17;1.70;;;27.90;38.80;;;;;;5027894;28;20025;-76
2021/05/29 10:15:15;;;;;;;2.60;1.73;;;28.50;36.30;;;;;;5029192;28;20075;-74
2021/05/29 10:17:42;;;;;;;1.60;1.50;;;27.70;37.90;;;;;;5029137;28;20033;-73
2021/05/29 10:20:09;;;;;;;1.45;1.35;;;26.80;39.50;;;;;;5028027;28;20061;-73
2021/05/29 10:22:34;;;;;;;2.17;1.55;;;26.70;40.20;;;;;;5029732;28;20064;-73
2021/05/29 10:25:00;;;;;;;2.58;1.80;;;27.30;40.40;;;;;;5029414;28;20053;-73
2021/05/29 10:27:29;;;;;;;2.63;1.58;;;27.20;39.50;;;;;;5027836;28;20026;-73
2021/05/29 10:29:59;;;;;;;1.60;1.40;;;26.80;40.70;;;;;;5029236;28;20478;-73
2021/05/29 10:32:25;;;;;;;2.40;1.80;;;26.20;40.60;;;;;;5029232;28;20029;-73
2021/05/29 10:34:57;;;;;;;1.85;1.58;;;25.90;40.80;;;;;;5029107;28;20033;-73
2021/05/29 10:37:27;;;;;;;2.30;1.60;;;25.90;42.40;;;;;;5030262;28;20494;-73
2021/05/29 10:39:54;;;;;;;2.80;1.70;;;28.60;39.40;;;;;;5028939;28;20026;-74
2021/05/29 10:42:31;;;;;;;2.20;1.67;;;32.70;31.40;;;;;;5028908;28;20018;-73
2021/05/29 10:45:18;;;;;;;2.15;1.73;;;34.90;28.50;;;;;;5027592;28;20050;-73
2021/05/29 10:48:00;;;;;;;2.80;1.65;;;35.50;27.70;;;;;;5028874;28;20104;-74
2021/05/29 10:50:54;;;;;;;;;;;37.10;26.50;;;;;;5027959;28;20032;-74
2021/05/29 10:53:36;;;;;;;1.98;1.42;;;38.70;26.60;;;;;;5029392;28;19912;-74
2021/05/29 10:56:23;;;;;;;;;;;40.70;24.30;;;;;;5027802;28;20071;-75
2021/05/29 10:59:02;;;;;;;1.75;1.00;;;41.40;23.20;;;;;;5029108;28;19959;-74
2021/05/29 11:01:47;;;;;;;2.70;1.67;;;41.80;23.50;;;;;;5027454;28;20036;-74
2021/05/29 11:04:20;;;;;;;2.30;1.75;;;42.40;22.30;;;;;;5028642;28;20108;-74
2021/05/29 11:06:52;;;;;;;1.80;1.30;;;43.10;22.50;;;;;;5032299;28;20048;-75
2021/05/29 11:09:37;;;;;;;1.88;1.58;;;44.40;21.00;;;;;;5030836;28;20025;-74
2021/05/29 11:12:08;;;;;;;1.67;1.50;;;43.50;21.40;;;;;;5023766;28;20558;-74
2021/05/29 11:14:48;;;;;;;2.58;1.50;;;41.60;23.30;;;;;;5032729;28;20387;-74
2021/05/29 11:17:40;;;;;;;1.83;1.48;;;38.60;23.60;;;;;;5031978;28;20021;-73
2021/05/29 11:20:19;;;;;;;1.77;1.40;;;36.40;25.80;;;;;;5028597;28;20033;-73
2021/05/29 11:22:47;;;;;;;2.03;1.40;;;33.80;28.70;;;;;;5030740;28;20524;-73
2021/05/29 11:25:15;;;;;;;1.60;1.27;;;31.70;29.20;;;;;;5031956;28;20032;-74
2021/05/29 11:27:43;;;;;;;1.33;1.20;;;30.50;30.00;;;;;;5031733;28;20024;-74
2021/05/29 11:30:13;;;;;;;2.22;1.75;;;29.30;30.60;;;;;;5030565;28;20048;-74
2021/05/29 11:32:59;;;;;;;1.58;1.23;;;28.20;33.60;;;;;;5032163;28;20029;-73
2021/05/29 11:35:38;;;;;;;3.58;1.40;;;27.40;36.60;;;;;;5031778;28;20419;-75
2021/05/29 11:38:19;;;;;;;3.13;1.42;;;26.80;37.00;;;;;;5031656;28;20034;-74
2021/05/29 11:40:54;;;;;;;2.28;1.65;;;26.30;38.90;;;;;;5031838;28;20108;-73
2021/05/29 11:43:42;;;;;;;2.30;1.30;;;26.90;36.00;;;;;;5030377;28;20025;-74
2021/05/29 11:46:13;;;;;;;1.98;1.20;;;27.90;36.10;;;;;;5031766;28;20026;-74
2021/05/29 11:48:45;;;;;;;1.70;1.42;;;30.20;34.30;;;;;;5031633;28;20394;-73
2021/05/29 11:51:13;;;;;;;1.40;1.30;;;30.80;31.60;;;;;;5031812;28;20068;-74
2021/05/29 11:53:43;;;;;;;1.15;1.00;;;30.70;32.90;;;;;;5031383;28;20022;-73
2021/05/29 11:56:09;;;;;;;1.23;1.00;;;30.20;31.10;;;;;;5030039;28;20068;-74
2021/05/29 11:58:49;;;;;;;2.38;1.10;;;30.70;30.60;;;;;;5031301;28;20037;-73
2021/05/29 12:01:16;;;;;;;1.70;1.20;;;30.80;31.10;;;;;;5031497;28;20048;-73
2021/05/29 12:03:47;;;;;;;1.60;1.23;;;30.60;31.80;;;;;;5031219;28;20075;-74
2021/05/29 12:06:31;;;;;;;1.80;1.23;;;30.50;32.60;;;;;;5029913;28;20379;-74
2021/05/29 12:08:58;;;;;;;2.58;1.20;;;30.40;33.00;;;;;;5031369;28;20450;-73
2021/05/29 12:11:29;;;;;;;1.40;1.30;;;29.80;31.30;;;;;;5031094;28;20021;-73
2021/05/29 12:13:58;;;;;;;4.05;1.73;;;30.50;31.60;;;;;;5031125;28;20030;-74
2021/05/29 12:16:30;;;;;;;2.90;1.85;;;32.90;28.50;;;;;;5028857;28;20026;-74
2021/05/29 12:18:55;;;;;;;1.27;1.17;;;34.60;27.50;;;;;;5031130;28;20108;-74
2021/05/29 12:21:21;;;;;;;3.33;1.90;;;34.10;26.10;;;;;;5029611;28;20061;-74
2021/05/29 12:23:58;;;;;;;2.25;1.40;;;32.40;27.50;;;;;;5031116;28;20036;-73
2021/05/29 12:26:25;;;;;;;1.30;1.00;;;31.30;29.30;;;;;;5030868;28;20029;-74
2021/05/29 12:28:51;;;;;;;1.67;1.27;;;30.30;30.90;;;;;;5029373;28;20494;-73
2021/05/29 12:31:26;;;;;;;2.22;1.10;;;29.20;32.00;;;;;;5030974;28;20107;-73
2021/05/29 12:34:03;;;;;;;2.88;1.30;;;28.20;35.20;;;;;;5030712;28;20029;-73
2021/05/29 12:36:29;;;;;;;1.60;1.30;;;27.40;37.10;;;;;;5030622;28;20087;-74
2021/05/29 12:38:58;;;;;;;3.20;1.50;;;26.40;39.90;;;;;;5030760;28;20091;-72
2021/05/29 12:41:24;;;;;;;2.67;1.25;;;25.70;44.00;;;;;;5030329;28;20065;-70
2021/05/29 12:44:19;;;;;;;1.55;1.42;;;25.30;44.00;;;;;;5030236;28;20049;-71
2021/05/29 12:46:45;;;;;;;2.67;1.30;;;25.60;41.60;;;;;;5021419;28;20053;-73
2021/05/29 12:49:16;;;;;;;1.45;1.20;;;26.50;40.00;;;;;;5030249;28;20029;-72
2021/05/29 12:51:46;;;;;;;2.13;1.45;;;27.00;38.60;;;;;;5030281;28;20520;-73
2021/05/29 12:54:12;;;;;;;2.70;1.40;;;27.40;37.80;;;;;;5030488;28;20021;-73
2021/05/29 12:56:56;;;;;;;2.08;1.30;;;27.20;37.10;;;;;;5030121;28;20529;-72
2021/05/29 12:59:23;;;;;;;2.20;1.40;;;26.90;37.40;;;;;;5028822;28;20053;-73
2021/05/29 13:07:25;;;;;;;2.17;1.30;;;25.90;38.00;;;;;;5030087;28;20029;-71
2021/05/29 13:09:59;;;;;;;2.60;1.13;;;26.00;39.60;;;;;;5028701;28;20030;-72
2021/05/29 13:12:25;;;;;;;0.93;0.90;;;25.90;38.80;;;;;;5028706;28;20021;-72
2021/05/29 13:14:50;;;;;;;1.75;1.17;;;26.00;38.20;;;;;;5029884;28;20022;-73